Esmond, South Dakota
Current Conditions -  °F | °C
As of 9:55 PM on Thursday 18 Dec 2014 (Local Time) from KHON Reporting Station
Haze Haze  
Wind Chill: 19°   Ceiling: 1500
Heat Index: 27°   Visibility: 6mi
Dew Point: 24°   Wind: 8mph
Humidity: 89%   Direction: 170°S
Pressure: 30.13"   Gusts: NA
Location:  44.3062°N, 97.8068°W
Report Text: KHON 190355Z AUTO 17007KT 6SM BR OVC015 M03/M04 A3013 RMK AO2 SLP224 T10281044
Loading
Personal Weather Stations






























Interactive Weather Map New forecast layout! Learn more

10-Day Weather Forecast

Advertisements
Track Severe Weather on mobile